sensor_id;sensor_type;location;lat;lon;timestamp;P1;durP1;ratioP1;P2;durP2;ratioP2
78686;SDS011;68002;52.310;6.990;2023-04-08T00:01:26;8.30;;;4.40;;
78686;SDS011;68002;52.310;6.990;2023-04-08T00:03:51;9.63;;;5.30;;
78686;SDS011;68002;52.310;6.990;2023-04-08T00:06:16;6.63;;;3.43;;
78686;SDS011;68002;52.310;6.990;2023-04-08T00:08:41;7.43;;;4.20;;
78686;SDS011;68002;52.310;6.990;2023-04-08T00:11:07;7.53;;;4.07;;
78686;SDS011;68002;52.310;6.990;2023-04-08T00:13:32;7.37;;;3.97;;
78686;SDS011;68002;52.310;6.990;2023-04-08T00:15:57;5.57;;;3.70;;
78686;SDS011;68002;52.310;6.990;2023-04-08T00:18:22;8.73;;;3.97;;
78686;SDS011;68002;52.310;6.990;2023-04-08T00:20:47;5.90;;;3.27;;
78686;SDS011;68002;52.310;6.990;2023-04-08T00:23:13;5.53;;;3.13;;
78686;SDS011;68002;52.310;6.990;2023-04-08T00:25:38;6.40;;;3.30;;
78686;SDS011;68002;52.310;6.990;2023-04-08T00:28:03;6.37;;;3.10;;
78686;SDS011;68002;52.310;6.990;2023-04-08T00:30:28;5.00;;;3.07;;
78686;SDS011;68002;52.310;6.990;2023-04-08T00:32:54;6.57;;;3.83;;
78686;SDS011;68002;52.310;6.990;2023-04-08T00:35:19;7.87;;;3.37;;
78686;SDS011;68002;52.310;6.990;2023-04-08T00:37:44;5.90;;;3.17;;
78686;SDS011;68002;52.310;6.990;2023-04-08T00:40:10;7.00;;;3.60;;
78686;SDS011;68002;52.310;6.990;2023-04-08T00:42:35;5.45;;;2.83;;
78686;SDS011;68002;52.310;6.990;2023-04-08T00:45:00;8.60;;;3.97;;
78686;SDS011;68002;52.310;6.990;2023-04-08T00:47:25;7.47;;;3.97;;
78686;SDS011;68002;52.310;6.990;2023-04-08T00:49:51;6.47;;;3.73;;
78686;SDS011;68002;52.310;6.990;2023-04-08T00:52:16;6.00;;;3.23;;
78686;SDS011;68002;52.310;6.990;2023-04-08T00:54:41;6.23;;;3.00;;
78686;SDS011;68002;52.310;6.990;2023-04-08T00:57:06;6.10;;;3.13;;
78686;SDS011;68002;52.310;6.990;2023-04-08T00:59:32;7.35;;;3.63;;
78686;SDS011;68002;52.310;6.990;2023-04-08T01:02:14;7.80;;;3.17;;
78686;SDS011;68002;52.310;6.990;2023-04-08T01:04:51;7.55;;;2.70;;
78686;SDS011;68002;52.310;6.990;2023-04-08T01:07:33;6.53;;;3.45;;
78686;SDS011;68002;52.310;6.990;2023-04-08T01:10:02;7.65;;;3.35;;
78686;SDS011;68002;52.310;6.990;2023-04-08T01:12:36;5.95;;;3.63;;
78686;SDS011;68002;52.310;6.990;2023-04-08T01:15:06;6.72;;;3.03;;
78686;SDS011;68002;52.310;6.990;2023-04-08T01:17:34;7.43;;;3.85;;
78686;SDS011;68002;52.310;6.990;2023-04-08T01:20:01;6.50;;;3.58;;
78686;SDS011;68002;52.310;6.990;2023-04-08T01:24:59;6.60;;;3.15;;
78686;SDS011;68002;52.310;6.990;2023-04-08T01:27:30;5.00;;;2.80;;
78686;SDS011;68002;52.310;6.990;2023-04-08T01:29:57;8.13;;;3.72;;
78686;SDS011;68002;52.310;6.990;2023-04-08T01:32:25;9.00;;;3.58;;
78686;SDS011;68002;52.310;6.990;2023-04-08T01:34:51;6.10;;;3.58;;
78686;SDS011;68002;52.310;6.990;2023-04-08T01:37:18;7.72;;;3.92;;
78686;SDS011;68002;52.310;6.990;2023-04-08T01:39:44;6.95;;;3.72;;
78686;SDS011;68002;52.310;6.990;2023-04-08T01:42:12;7.18;;;2.92;;
78686;SDS011;68002;52.310;6.990;2023-04-08T01:44:39;8.07;;;3.35;;
78686;SDS011;68002;52.310;6.990;2023-04-08T01:47:06;6.63;;;3.35;;
78686;SDS011;68002;52.310;6.990;2023-04-08T01:49:32;7.80;;;3.30;;
78686;SDS011;68002;52.310;6.990;2023-04-08T01:51:58;5.70;;;3.15;;
78686;SDS011;68002;52.310;6.990;2023-04-08T01:54:25;5.47;;;2.88;;
78686;SDS011;68002;52.310;6.990;2023-04-08T01:56:50;5.53;;;2.90;;
78686;SDS011;68002;52.310;6.990;2023-04-08T01:59:19;7.00;;;3.33;;
78686;SDS011;68002;52.310;6.990;2023-04-08T02:01:47;6.75;;;3.17;;
78686;SDS011;68002;52.310;6.990;2023-04-08T02:04:12;8.00;;;3.53;;
78686;SDS011;68002;52.310;6.990;2023-04-08T02:06:38;8.03;;;3.43;;
78686;SDS011;68002;52.310;6.990;2023-04-08T02:09:03;5.17;;;2.43;;
78686;SDS011;68002;52.310;6.990;2023-04-08T02:11:28;6.57;;;3.25;;
78686;SDS011;68002;52.310;6.990;2023-04-08T02:13:54;6.93;;;4.23;;
78686;SDS011;68002;52.310;6.990;2023-04-08T02:16:30;9.68;;;3.97;;
78686;SDS011;68002;52.310;6.990;2023-04-08T02:19:07;6.63;;;3.42;;
78686;SDS011;68002;52.310;6.990;2023-04-08T02:21:42;6.10;;;3.08;;
78686;SDS011;68002;52.310;6.990;2023-04-08T02:24:11;4.97;;;2.88;;
78686;SDS011;68002;52.310;6.990;2023-04-08T02:26:39;7.00;;;3.58;;
78686;SDS011;68002;52.310;6.990;2023-04-08T02:29:07;6.03;;;3.00;;
78686;SDS011;68002;52.310;6.990;2023-04-08T02:31:37;7.45;;;3.80;;
78686;SDS011;68002;52.310;6.990;2023-04-08T02:34:04;8.15;;;3.15;;
78686;SDS011;68002;52.310;6.990;2023-04-08T02:36:32;6.57;;;2.60;;
78686;SDS011;68002;52.310;6.990;2023-04-08T02:38:58;5.20;;;3.00;;
78686;SDS011;68002;52.310;6.990;2023-04-08T02:41:26;6.53;;;3.60;;
78686;SDS011;68002;52.310;6.990;2023-04-08T02:43:52;5.68;;;2.85;;
78686;SDS011;68002;52.310;6.990;2023-04-08T02:46:17;5.93;;;2.70;;
78686;SDS011;68002;52.310;6.990;2023-04-08T02:48:43;5.70;;;3.03;;
78686;SDS011;68002;52.310;6.990;2023-04-08T02:51:08;5.00;;;2.30;;
78686;SDS011;68002;52.310;6.990;2023-04-08T02:53:33;5.33;;;2.97;;
78686;SDS011;68002;52.310;6.990;2023-04-08T02:55:58;6.73;;;3.13;;
78686;SDS011;68002;52.310;6.990;2023-04-08T02:58:23;6.23;;;3.23;;
78686;SDS011;68002;52.310;6.990;2023-04-08T03:00:49;7.13;;;2.80;;
78686;SDS011;68002;52.310;6.990;2023-04-08T03:03:14;5.93;;;2.80;;
78686;SDS011;68002;52.310;6.990;2023-04-08T03:05:39;7.60;;;3.27;;
78686;SDS011;68002;52.310;6.990;2023-04-08T03:08:05;6.40;;;2.67;;
78686;SDS011;68002;52.310;6.990;2023-04-08T03:10:30;7.40;;;2.40;;
78686;SDS011;68002;52.310;6.990;2023-04-08T03:12:55;5.53;;;2.57;;
78686;SDS011;68002;52.310;6.990;2023-04-08T03:15:20;5.57;;;2.80;;
78686;SDS011;68002;52.310;6.990;2023-04-08T03:17:46;6.57;;;2.60;;
78686;SDS011;68002;52.310;6.990;2023-04-08T03:20:11;6.20;;;3.50;;
78686;SDS011;68002;52.310;6.990;2023-04-08T03:22:36;5.20;;;2.40;;
78686;SDS011;68002;52.310;6.990;2023-04-08T03:25:01;6.23;;;3.20;;
78686;SDS011;68002;52.310;6.990;2023-04-08T03:27:27;9.20;;;5.10;;
78686;SDS011;68002;52.310;6.990;2023-04-08T03:29:52;6.45;;;3.53;;
78686;SDS011;68002;52.310;6.990;2023-04-08T03:32:17;6.53;;;3.20;;
78686;SDS011;68002;52.310;6.990;2023-04-08T03:34:43;5.97;;;2.60;;
78686;SDS011;68002;52.310;6.990;2023-04-08T03:37:08;6.00;;;3.07;;
78686;SDS011;68002;52.310;6.990;2023-04-08T03:39:34;6.75;;;3.72;;
78686;SDS011;68002;52.310;6.990;2023-04-08T03:41:59;5.97;;;3.13;;
78686;SDS011;68002;52.310;6.990;2023-04-08T03:44:24;7.63;;;3.40;;
78686;SDS011;68002;52.310;6.990;2023-04-08T03:46:49;8.13;;;3.27;;
78686;SDS011;68002;52.310;6.990;2023-04-08T03:49:14;5.13;;;2.83;;
78686;SDS011;68002;52.310;6.990;2023-04-08T03:51:40;5.77;;;2.97;;
78686;SDS011;68002;52.310;6.990;2023-04-08T03:54:05;7.60;;;3.57;;
78686;SDS011;68002;52.310;6.990;2023-04-08T03:56:30;5.47;;;2.67;;
78686;SDS011;68002;52.310;6.990;2023-04-08T03:58:55;6.33;;;3.67;;
78686;SDS011;68002;52.310;6.990;2023-04-08T04:01:20;7.07;;;2.73;;
78686;SDS011;68002;52.310;6.990;2023-04-08T04:03:46;9.60;;;3.67;;
78686;SDS011;68002;52.310;6.990;2023-04-08T04:06:11;7.27;;;3.33;;
78686;SDS011;68002;52.310;6.990;2023-04-08T04:08:36;6.80;;;3.43;;
78686;SDS011;68002;52.310;6.990;2023-04-08T04:11:01;8.87;;;3.90;;
78686;SDS011;68002;52.310;6.990;2023-04-08T04:13:26;7.90;;;3.53;;
78686;SDS011;68002;52.310;6.990;2023-04-08T04:15:52;6.87;;;3.53;;
78686;SDS011;68002;52.310;6.990;2023-04-08T04:18:17;8.17;;;3.50;;
78686;SDS011;68002;52.310;6.990;2023-04-08T04:20:42;8.00;;;3.33;;
78686;SDS011;68002;52.310;6.990;2023-04-08T04:23:07;8.20;;;3.67;;
78686;SDS011;68002;52.310;6.990;2023-04-08T04:25:33;6.22;;;3.35;;
78686;SDS011;68002;52.310;6.990;2023-04-08T04:27:58;6.53;;;3.10;;
78686;SDS011;68002;52.310;6.990;2023-04-08T04:30:23;6.93;;;3.53;;
78686;SDS011;68002;52.310;6.990;2023-04-08T04:32:49;6.77;;;3.03;;
78686;SDS011;68002;52.310;6.990;2023-04-08T04:35:14;7.07;;;3.43;;
78686;SDS011;68002;52.310;6.990;2023-04-08T04:37:39;6.77;;;3.83;;
78686;SDS011;68002;52.310;6.990;2023-04-08T04:40:05;8.80;;;3.97;;
78686;SDS011;68002;52.310;6.990;2023-04-08T04:42:30;5.70;;;3.70;;
78686;SDS011;68002;52.310;6.990;2023-04-08T04:44:56;9.15;;;3.67;;
78686;SDS011;68002;52.310;6.990;2023-04-08T04:47:21;7.82;;;3.80;;
78686;SDS011;68002;52.310;6.990;2023-04-08T04:49:47;7.68;;;3.58;;
78686;SDS011;68002;52.310;6.990;2023-04-08T04:52:12;9.47;;;3.57;;
78686;SDS011;68002;52.310;6.990;2023-04-08T04:54:37;6.50;;;3.43;;
78686;SDS011;68002;52.310;6.990;2023-04-08T04:57:02;8.67;;;4.50;;
78686;SDS011;68002;52.310;6.990;2023-04-08T04:59:28;7.00;;;3.50;;
78686;SDS011;68002;52.310;6.990;2023-04-08T05:01:53;8.90;;;4.43;;
78686;SDS011;68002;52.310;6.990;2023-04-08T05:04:18;9.13;;;3.77;;
78686;SDS011;68002;52.310;6.990;2023-04-08T05:06:43;8.87;;;4.00;;
78686;SDS011;68002;52.310;6.990;2023-04-08T05:09:08;8.50;;;3.83;;
78686;SDS011;68002;52.310;6.990;2023-04-08T05:11:34;7.07;;;4.07;;
78686;SDS011;68002;52.310;6.990;2023-04-08T05:13:59;7.93;;;4.37;;
78686;SDS011;68002;52.310;6.990;2023-04-08T05:16:24;8.03;;;4.37;;
78686;SDS011;68002;52.310;6.990;2023-04-08T05:18:49;6.27;;;3.03;;
78686;SDS011;68002;52.310;6.990;2023-04-08T05:21:14;7.63;;;5.37;;
78686;SDS011;68002;52.310;6.990;2023-04-08T05:23:40;7.23;;;3.77;;
78686;SDS011;68002;52.310;6.990;2023-04-08T05:26:06;6.47;;;4.53;;
78686;SDS011;68002;52.310;6.990;2023-04-08T05:28:31;7.38;;;4.45;;
78686;SDS011;68002;52.310;6.990;2023-04-08T05:30:57;7.57;;;4.07;;
78686;SDS011;68002;52.310;6.990;2023-04-08T05:33:22;7.23;;;4.33;;
78686;SDS011;68002;52.310;6.990;2023-04-08T05:35:47;8.40;;;4.53;;
78686;SDS011;68002;52.310;6.990;2023-04-08T05:38:12;7.80;;;4.63;;
78686;SDS011;68002;52.310;6.990;2023-04-08T05:40:37;10.03;;;5.03;;
78686;SDS011;68002;52.310;6.990;2023-04-08T05:43:03;10.43;;;4.90;;
78686;SDS011;68002;52.310;6.990;2023-04-08T05:45:28;10.13;;;6.13;;
78686;SDS011;68002;52.310;6.990;2023-04-08T05:47:53;8.93;;;4.72;;
78686;SDS011;68002;52.310;6.990;2023-04-08T05:50:19;9.10;;;4.73;;
78686;SDS011;68002;52.310;6.990;2023-04-08T05:52:44;8.90;;;4.63;;
78686;SDS011;68002;52.310;6.990;2023-04-08T05:55:10;8.07;;;4.17;;
78686;SDS011;68002;52.310;6.990;2023-04-08T05:57:36;8.85;;;5.18;;
78686;SDS011;68002;52.310;6.990;2023-04-08T06:00:01;10.20;;;5.10;;
78686;SDS011;68002;52.310;6.990;2023-04-08T06:02:28;8.77;;;4.07;;
78686;SDS011;68002;52.310;6.990;2023-04-08T06:04:53;8.67;;;4.03;;
78686;SDS011;68002;52.310;6.990;2023-04-08T06:07:19;10.17;;;5.23;;
78686;SDS011;68002;52.310;6.990;2023-04-08T06:09:44;7.77;;;3.63;;
78686;SDS011;68002;52.310;6.990;2023-04-08T06:12:09;10.53;;;5.10;;
78686;SDS011;68002;52.310;6.990;2023-04-08T06:14:34;16.27;;;6.33;;
78686;SDS011;68002;52.310;6.990;2023-04-08T06:16:59;10.40;;;4.97;;
78686;SDS011;68002;52.310;6.990;2023-04-08T06:19:25;9.10;;;4.80;;
78686;SDS011;68002;52.310;6.990;2023-04-08T06:21:50;12.10;;;5.47;;
78686;SDS011;68002;52.310;6.990;2023-04-08T06:24:15;7.63;;;4.73;;
78686;SDS011;68002;52.310;6.990;2023-04-08T06:26:41;8.88;;;4.80;;
78686;SDS011;68002;52.310;6.990;2023-04-08T06:29:06;7.43;;;4.33;;
78686;SDS011;68002;52.310;6.990;2023-04-08T06:31:31;8.30;;;4.90;;
78686;SDS011;68002;52.310;6.990;2023-04-08T06:33:56;7.53;;;4.43;;
78686;SDS011;68002;52.310;6.990;2023-04-08T06:36:21;7.67;;;4.53;;
78686;SDS011;68002;52.310;6.990;2023-04-08T06:38:47;8.87;;;4.93;;
78686;SDS011;68002;52.310;6.990;2023-04-08T06:41:12;9.43;;;5.93;;
78686;SDS011;68002;52.310;6.990;2023-04-08T06:43:37;12.23;;;5.77;;
78686;SDS011;68002;52.310;6.990;2023-04-08T06:46:02;8.77;;;5.03;;
78686;SDS011;68002;52.310;6.990;2023-04-08T06:48:28;10.87;;;6.63;;
78686;SDS011;68002;52.310;6.990;2023-04-08T06:50:56;8.43;;;5.13;;
78686;SDS011;68002;52.310;6.990;2023-04-08T06:53:23;7.88;;;5.43;;
78686;SDS011;68002;52.310;6.990;2023-04-08T06:55:49;9.10;;;5.95;;
78686;SDS011;68002;52.310;6.990;2023-04-08T06:58:14;8.90;;;5.83;;
78686;SDS011;68002;52.310;6.990;2023-04-08T07:00:40;8.27;;;4.67;;
78686;SDS011;68002;52.310;6.990;2023-04-08T07:03:06;8.05;;;4.60;;
78686;SDS011;68002;52.310;6.990;2023-04-08T07:05:31;9.30;;;5.13;;
78686;SDS011;68002;52.310;6.990;2023-04-08T07:07:59;9.30;;;5.40;;
78686;SDS011;68002;52.310;6.990;2023-04-08T07:10:25;7.20;;;5.03;;
78686;SDS011;68002;52.310;6.990;2023-04-08T07:12:50;8.60;;;4.97;;
78686;SDS011;68002;52.310;6.990;2023-04-08T07:15:15;6.57;;;3.80;;
78686;SDS011;68002;52.310;6.990;2023-04-08T07:17:40;7.43;;;4.93;;
78686;SDS011;68002;52.310;6.990;2023-04-08T07:20:06;7.40;;;4.93;;
78686;SDS011;68002;52.310;6.990;2023-04-08T07:22:31;7.70;;;4.70;;
78686;SDS011;68002;52.310;6.990;2023-04-08T07:24:56;6.77;;;4.40;;
78686;SDS011;68002;52.310;6.990;2023-04-08T07:27:22;9.80;;;5.50;;
78686;SDS011;68002;52.310;6.990;2023-04-08T07:29:51;8.67;;;5.63;;
78686;SDS011;68002;52.310;6.990;2023-04-08T07:32:16;9.40;;;5.00;;
78686;SDS011;68002;52.310;6.990;2023-04-08T07:34:42;7.97;;;5.73;;
78686;SDS011;68002;52.310;6.990;2023-04-08T07:37:07;8.10;;;5.17;;
78686;SDS011;68002;52.310;6.990;2023-04-08T07:39:32;6.83;;;4.70;;
78686;SDS011;68002;52.310;6.990;2023-04-08T07:41:57;6.90;;;4.57;;
78686;SDS011;68002;52.310;6.990;2023-04-08T07:44:22;8.50;;;5.00;;
78686;SDS011;68002;52.310;6.990;2023-04-08T07:46:48;7.87;;;5.47;;
78686;SDS011;68002;52.310;6.990;2023-04-08T07:49:13;8.37;;;5.17;;
78686;SDS011;68002;52.310;6.990;2023-04-08T07:51:38;8.43;;;5.10;;
78686;SDS011;68002;52.310;6.990;2023-04-08T07:54:03;8.83;;;6.33;;
78686;SDS011;68002;52.310;6.990;2023-04-08T07:56:29;11.10;;;6.00;;
78686;SDS011;68002;52.310;6.990;2023-04-08T07:58:54;10.83;;;6.00;;
78686;SDS011;68002;52.310;6.990;2023-04-08T08:01:20;6.87;;;4.53;;
78686;SDS011;68002;52.310;6.990;2023-04-08T08:03:50;9.30;;;5.78;;
78686;SDS011;68002;52.310;6.990;2023-04-08T08:06:16;8.13;;;5.28;;
78686;SDS011;68002;52.310;6.990;2023-04-08T08:08:41;9.07;;;5.25;;
78686;SDS011;68002;52.310;6.990;2023-04-08T08:11:07;8.05;;;5.32;;
78686;SDS011;68002;52.310;6.990;2023-04-08T08:13:32;8.53;;;5.60;;
78686;SDS011;68002;52.310;6.990;2023-04-08T08:15:58;7.40;;;4.32;;
78686;SDS011;68002;52.310;6.990;2023-04-08T08:18:23;8.05;;;5.60;;
78686;SDS011;68002;52.310;6.990;2023-04-08T08:20:48;9.43;;;5.57;;
78686;SDS011;68002;52.310;6.990;2023-04-08T08:23:14;6.23;;;4.17;;
78686;SDS011;68002;52.310;6.990;2023-04-08T08:25:39;11.87;;;6.90;;
78686;SDS011;68002;52.310;6.990;2023-04-08T08:28:04;10.47;;;4.90;;
78686;SDS011;68002;52.310;6.990;2023-04-08T08:30:29;10.10;;;5.57;;
78686;SDS011;68002;52.310;6.990;2023-04-08T08:32:54;8.37;;;4.87;;
78686;SDS011;68002;52.310;6.990;2023-04-08T08:35:20;10.00;;;4.57;;
78686;SDS011;68002;52.310;6.990;2023-04-08T08:37:45;9.90;;;5.07;;
78686;SDS011;68002;52.310;6.990;2023-04-08T08:40:10;9.17;;;5.20;;
78686;SDS011;68002;52.310;6.990;2023-04-08T08:42:36;9.68;;;5.95;;
78686;SDS011;68002;52.310;6.990;2023-04-08T08:45:03;9.35;;;5.82;;
78686;SDS011;68002;52.310;6.990;2023-04-08T08:47:29;8.10;;;5.40;;
78686;SDS011;68002;52.310;6.990;2023-04-08T08:49:55;10.68;;;5.95;;
78686;SDS011;68002;52.310;6.990;2023-04-08T08:52:20;8.93;;;5.57;;
78686;SDS011;68002;52.310;6.990;2023-04-08T08:54:45;7.47;;;4.90;;
78686;SDS011;68002;52.310;6.990;2023-04-08T08:57:20;9.02;;;5.90;;
78686;SDS011;68002;52.310;6.990;2023-04-08T08:59:45;8.63;;;5.55;;
78686;SDS011;68002;52.310;6.990;2023-04-08T09:02:24;7.55;;;5.10;;
78686;SDS011;68002;52.310;6.990;2023-04-08T09:04:54;9.50;;;5.63;;
78686;SDS011;68002;52.310;6.990;2023-04-08T09:07:24;8.85;;;5.60;;
78686;SDS011;68002;52.310;6.990;2023-04-08T09:09:50;10.15;;;5.57;;
78686;SDS011;68002;52.310;6.990;2023-04-08T09:12:16;9.00;;;4.60;;
78686;SDS011;68002;52.310;6.990;2023-04-08T09:14:42;9.57;;;5.50;;
78686;SDS011;68002;52.310;6.990;2023-04-08T09:17:07;8.88;;;5.80;;
78686;SDS011;68002;52.310;6.990;2023-04-08T09:19:32;9.30;;;6.07;;
78686;SDS011;68002;52.310;6.990;2023-04-08T09:22:08;8.43;;;4.97;;
78686;SDS011;68002;52.310;6.990;2023-04-08T09:24:34;9.10;;;6.03;;
78686;SDS011;68002;52.310;6.990;2023-04-08T09:27:00;8.43;;;5.30;;
78686;SDS011;68002;52.310;6.990;2023-04-08T09:29:25;6.90;;;4.63;;
78686;SDS011;68002;52.310;6.990;2023-04-08T09:31:54;8.85;;;5.30;;
78686;SDS011;68002;52.310;6.990;2023-04-08T09:34:23;7.28;;;4.25;;
78686;SDS011;68002;52.310;6.990;2023-04-08T09:36:50;8.95;;;5.65;;
78686;SDS011;68002;52.310;6.990;2023-04-08T09:39:16;8.93;;;5.15;;
78686;SDS011;68002;52.310;6.990;2023-04-08T09:41:42;9.02;;;6.03;;
78686;SDS011;68002;52.310;6.990;2023-04-08T09:44:11;10.18;;;7.30;;
78686;SDS011;68002;52.310;6.990;2023-04-08T09:46:39;10.68;;;6.28;;
78686;SDS011;68002;52.310;6.990;2023-04-08T09:49:10;12.35;;;6.85;;
78686;SDS011;68002;52.310;6.990;2023-04-08T09:51:41;8.85;;;5.65;;
78686;SDS011;68002;52.310;6.990;2023-04-08T09:54:13;9.32;;;5.55;;
78686;SDS011;68002;52.310;6.990;2023-04-08T09:56:48;11.25;;;6.43;;
78686;SDS011;68002;52.310;6.990;2023-04-08T09:59:18;10.50;;;6.72;;
78686;SDS011;68002;52.310;6.990;2023-04-08T10:01:52;12.02;;;7.47;;
78686;SDS011;68002;52.310;6.990;2023-04-08T10:04:20;10.23;;;5.95;;
78686;SDS011;68002;52.310;6.990;2023-04-08T10:06:51;11.70;;;6.38;;
78686;SDS011;68002;52.310;6.990;2023-04-08T10:09:20;13.07;;;8.40;;
78686;SDS011;68002;52.310;6.990;2023-04-08T10:11:46;14.57;;;8.40;;
78686;SDS011;68002;52.310;6.990;2023-04-08T10:14:12;11.43;;;7.70;;
78686;SDS011;68002;52.310;6.990;2023-04-08T10:16:37;11.47;;;8.37;;
78686;SDS011;68002;52.310;6.990;2023-04-08T10:19:02;12.17;;;7.67;;
78686;SDS011;68002;52.310;6.990;2023-04-08T10:22:00;12.60;;;8.27;;
78686;SDS011;68002;52.310;6.990;2023-04-08T10:24:25;11.73;;;7.67;;
78686;SDS011;68002;52.310;6.990;2023-04-08T10:26:51;13.37;;;9.30;;
78686;SDS011;68002;52.310;6.990;2023-04-08T10:31:41;14.67;;;10.07;;
78686;SDS011;68002;52.310;6.990;2023-04-08T10:34:39;12.73;;;8.37;;
78686;SDS011;68002;52.310;6.990;2023-04-08T10:36:58;13.45;;;9.15;;
78686;SDS011;68002;52.310;6.990;2023-04-08T10:39:23;13.90;;;9.67;;
78686;SDS011;68002;52.310;6.990;2023-04-08T10:41:49;12.57;;;8.48;;
78686;SDS011;68002;52.310;6.990;2023-04-08T10:44:18;15.18;;;9.02;;
78686;SDS011;68002;52.310;6.990;2023-04-08T10:46:48;14.13;;;9.63;;
78686;SDS011;68002;52.310;6.990;2023-04-08T10:49:15;13.48;;;8.77;;
78686;SDS011;68002;52.310;6.990;2023-04-08T10:51:40;14.68;;;9.95;;
78686;SDS011;68002;52.310;6.990;2023-04-08T10:54:11;15.18;;;9.82;;
78686;SDS011;68002;52.310;6.990;2023-04-08T10:56:46;15.82;;;10.25;;
78686;SDS011;68002;52.310;6.990;2023-04-08T10:59:12;14.05;;;9.13;;
78686;SDS011;68002;52.310;6.990;2023-04-08T11:01:39;16.00;;;10.40;;
78686;SDS011;68002;52.310;6.990;2023-04-08T11:04:23;14.68;;;9.88;;
78686;SDS011;68002;52.310;6.990;2023-04-08T11:06:49;16.50;;;10.02;;
78686;SDS011;68002;52.310;6.990;2023-04-08T11:09:14;16.23;;;9.73;;
78686;SDS011;68002;52.310;6.990;2023-04-08T11:11:40;14.73;;;9.32;;
78686;SDS011;68002;52.310;6.990;2023-04-08T11:14:07;14.00;;;8.85;;
78686;SDS011;68002;52.310;6.990;2023-04-08T11:16:32;13.25;;;8.52;;
78686;SDS011;68002;52.310;6.990;2023-04-08T11:18:59;16.00;;;9.50;;
78686;SDS011;68002;52.310;6.990;2023-04-08T11:21:27;15.00;;;8.95;;
78686;SDS011;68002;52.310;6.990;2023-04-08T11:23:52;14.85;;;10.20;;
78686;SDS011;68002;52.310;6.990;2023-04-08T11:26:18;15.03;;;8.80;;
78686;SDS011;68002;52.310;6.990;2023-04-08T11:28:43;15.20;;;9.07;;
78686;SDS011;68002;52.310;6.990;2023-04-08T11:31:09;15.40;;;10.25;;
78686;SDS011;68002;52.310;6.990;2023-04-08T11:33:34;16.52;;;10.23;;
78686;SDS011;68002;52.310;6.990;2023-04-08T11:36:00;17.63;;;10.23;;
78686;SDS011;68002;52.310;6.990;2023-04-08T11:38:26;18.08;;;10.70;;
78686;SDS011;68002;52.310;6.990;2023-04-08T11:40:52;15.80;;;9.20;;
78686;SDS011;68002;52.310;6.990;2023-04-08T11:43:21;18.15;;;10.55;;
78686;SDS011;68002;52.310;6.990;2023-04-08T11:45:47;17.67;;;10.52;;
78686;SDS011;68002;52.310;6.990;2023-04-08T11:48:13;18.73;;;10.98;;
78686;SDS011;68002;52.310;6.990;2023-04-08T11:50:39;19.17;;;10.85;;
78686;SDS011;68002;52.310;6.990;2023-04-08T11:56:19;18.17;;;10.10;;
78686;SDS011;68002;52.310;6.990;2023-04-08T11:58:47;22.13;;;13.60;;
78686;SDS011;68002;52.310;6.990;2023-04-08T12:01:14;20.33;;;12.70;;
78686;SDS011;68002;52.310;6.990;2023-04-08T12:03:51;20.17;;;12.20;;
78686;SDS011;68002;52.310;6.990;2023-04-08T12:06:18;20.98;;;11.30;;
78686;SDS011;68002;52.310;6.990;2023-04-08T12:08:43;21.73;;;12.27;;
78686;SDS011;68002;52.310;6.990;2023-04-08T12:11:08;20.23;;;11.33;;
78686;SDS011;68002;52.310;6.990;2023-04-08T12:13:33;22.87;;;12.67;;
78686;SDS011;68002;52.310;6.990;2023-04-08T12:15:58;22.90;;;12.20;;
78686;SDS011;68002;52.310;6.990;2023-04-08T12:18:24;21.63;;;13.03;;
78686;SDS011;68002;52.310;6.990;2023-04-08T12:20:49;21.13;;;11.87;;
78686;SDS011;68002;52.310;6.990;2023-04-08T12:23:14;25.63;;;13.57;;
78686;SDS011;68002;52.310;6.990;2023-04-08T12:25:39;19.97;;;11.20;;
78686;SDS011;68002;52.310;6.990;2023-04-08T12:28:04;24.37;;;13.27;;
78686;SDS011;68002;52.310;6.990;2023-04-08T12:30:30;25.17;;;13.27;;
78686;SDS011;68002;52.310;6.990;2023-04-08T12:32:55;21.60;;;11.73;;
78686;SDS011;68002;52.310;6.990;2023-04-08T12:35:20;22.07;;;12.33;;
78686;SDS011;68002;52.310;6.990;2023-04-08T12:37:45;20.43;;;11.10;;
78686;SDS011;68002;52.310;6.990;2023-04-08T12:40:11;22.43;;;12.60;;
78686;SDS011;68002;52.310;6.990;2023-04-08T12:42:36;20.30;;;12.52;;
78686;SDS011;68002;52.310;6.990;2023-04-08T12:45:01;20.83;;;10.67;;
78686;SDS011;68002;52.310;6.990;2023-04-08T12:47:26;24.50;;;12.83;;
78686;SDS011;68002;52.310;6.990;2023-04-08T12:49:52;20.63;;;11.97;;
78686;SDS011;68002;52.310;6.990;2023-04-08T12:52:17;19.73;;;11.47;;
78686;SDS011;68002;52.310;6.990;2023-04-08T12:54:42;17.10;;;9.10;;
78686;SDS011;68002;52.310;6.990;2023-04-08T12:57:07;18.00;;;9.63;;
78686;SDS011;68002;52.310;6.990;2023-04-08T12:59:32;19.03;;;10.87;;
78686;SDS011;68002;52.310;6.990;2023-04-08T13:01:58;19.40;;;9.73;;
78686;SDS011;68002;52.310;6.990;2023-04-08T13:04:23;17.13;;;10.90;;
78686;SDS011;68002;52.310;6.990;2023-04-08T13:06:48;18.23;;;10.67;;
78686;SDS011;68002;52.310;6.990;2023-04-08T13:09:13;16.03;;;8.43;;
78686;SDS011;68002;52.310;6.990;2023-04-08T13:11:39;16.63;;;9.67;;
78686;SDS011;68002;52.310;6.990;2023-04-08T13:14:04;13.67;;;7.07;;
78686;SDS011;68002;52.310;6.990;2023-04-08T13:16:29;15.70;;;8.27;;
78686;SDS011;68002;52.310;6.990;2023-04-08T13:18:54;18.43;;;11.00;;
78686;SDS011;68002;52.310;6.990;2023-04-08T13:21:19;17.27;;;9.63;;
78686;SDS011;68002;52.310;6.990;2023-04-08T13:23:45;15.23;;;8.80;;
78686;SDS011;68002;52.310;6.990;2023-04-08T13:26:10;16.83;;;9.17;;
78686;SDS011;68002;52.310;6.990;2023-04-08T13:28:35;16.47;;;8.93;;
78686;SDS011;68002;52.310;6.990;2023-04-08T13:31:00;18.63;;;10.23;;
78686;SDS011;68002;52.310;6.990;2023-04-08T13:33:25;18.73;;;10.43;;
78686;SDS011;68002;52.310;6.990;2023-04-08T13:35:51;17.93;;;10.27;;
78686;SDS011;68002;52.310;6.990;2023-04-08T13:38:16;15.97;;;7.70;;
78686;SDS011;68002;52.310;6.990;2023-04-08T13:40:41;16.67;;;9.57;;
78686;SDS011;68002;52.310;6.990;2023-04-08T13:43:06;12.07;;;6.73;;
78686;SDS011;68002;52.310;6.990;2023-04-08T13:45:32;12.47;;;6.73;;
78686;SDS011;68002;52.310;6.990;2023-04-08T13:47:57;15.00;;;8.27;;
78686;SDS011;68002;52.310;6.990;2023-04-08T13:50:22;15.00;;;8.17;;
78686;SDS011;68002;52.310;6.990;2023-04-08T13:52:47;13.33;;;8.13;;
78686;SDS011;68002;52.310;6.990;2023-04-08T13:55:12;14.03;;;7.23;;
78686;SDS011;68002;52.310;6.990;2023-04-08T13:57:38;13.63;;;7.60;;
78686;SDS011;68002;52.310;6.990;2023-04-08T14:00:03;13.63;;;7.00;;
78686;SDS011;68002;52.310;6.990;2023-04-08T14:02:28;12.23;;;6.80;;
78686;SDS011;68002;52.310;6.990;2023-04-08T14:04:54;15.83;;;9.47;;
78686;SDS011;68002;52.310;6.990;2023-04-08T14:07:19;13.27;;;7.77;;
78686;SDS011;68002;52.310;6.990;2023-04-08T14:09:44;15.63;;;8.07;;
78686;SDS011;68002;52.310;6.990;2023-04-08T14:12:09;15.73;;;8.33;;
78686;SDS011;68002;52.310;6.990;2023-04-08T14:14:35;13.73;;;7.63;;
78686;SDS011;68002;52.310;6.990;2023-04-08T14:17:00;15.70;;;9.30;;
78686;SDS011;68002;52.310;6.990;2023-04-08T14:19:25;15.17;;;8.13;;
78686;SDS011;68002;52.310;6.990;2023-04-08T14:21:50;17.83;;;8.93;;
78686;SDS011;68002;52.310;6.990;2023-04-08T14:24:16;15.57;;;8.23;;
78686;SDS011;68002;52.310;6.990;2023-04-08T14:26:41;14.93;;;8.00;;
78686;SDS011;68002;52.310;6.990;2023-04-08T14:29:06;17.23;;;8.67;;
78686;SDS011;68002;52.310;6.990;2023-04-08T14:31:32;14.80;;;7.67;;
78686;SDS011;68002;52.310;6.990;2023-04-08T14:33:58;17.38;;;8.40;;
78686;SDS011;68002;52.310;6.990;2023-04-08T14:36:24;14.90;;;8.32;;
78686;SDS011;68002;52.310;6.990;2023-04-08T14:38:49;18.77;;;9.18;;
78686;SDS011;68002;52.310;6.990;2023-04-08T14:41:15;18.05;;;8.88;;
78686;SDS011;68002;52.310;6.990;2023-04-08T14:43:40;15.18;;;7.57;;